This is the latest recevied weather packets stored in our database for station/object SP3VSS-13. If no packets are shown the sender has not sent any weather packets the latest 10 day(s).
| Time | Temp. | Humidity | Pressure | Rain* | Wind** | Luminosity | Snow |
|---|---|---|---|---|---|---|---|
| 1788301662 | 15.56° C | 92% | 1006.4 hPa | - | - | - | - |
| 1788300760 | 15.56° C | 92% | 1006.6 hPa | - | - | - | - |
| 1788299859 | 15.56° C | 90% | 1006.6 hPa | - | - | - | - |
| 1788298958 | 16.11° C | 89% | 1006.6 hPa | - | - | - | - |
| 1788298058 | 17.78° C | 77% | 1006.4 hPa | - | - | - | - |
| 1788297157 | 17.78° C | 77% | 1006.7 hPa | - | - | - | - |
| 1788296255 | 18.33° C | 73% | 1006.2 hPa | - | - | - | - |
| 1788294453 | 18.33° C | 73% | 1005.9 hPa | - | - | - | - |
| 1788293552 | 18.33° C | 73% | 1005.8 hPa | - | - | - | - |
| 1788292651 | 18.33° C | 73% | 1005.7 hPa | - | - | - | - |
| 1788291750 | 18.33° C | 73% | 1005.7 hPa | - | - | - | - |
| 1788290849 | 18.89° C | 73% | 1005.7 hPa | - | - | - | - |
| 1788289948 | 18.89° C | 73% | 1005.6 hPa | - | - | - | - |
| 1788289047 | 18.89° C | 73% | 1005.5 hPa | - | - | - | - |
| 1788288146 | 19.44° C | 72% | 1005.5 hPa | - | - | - | - |
| 1788287245 | 19.44° C | 72% | 1005.4 hPa | - | - | - | - |
| 1788286344 | 19.44° C | 72% | 1005.2 hPa | - | - | - | - |
| 1788285443 | 20.56° C | 64% | 1005 hPa | - | - | - | - |
| 1788284542 | 20.56° C | 64% | 1004.9 hPa | - | - | - | - |
| 1788283641 | 20.56° C | 64% | 1004.8 hPa | - | - | - | - |
| 1788282737 | 20.56° C | 64% | 1004.7 hPa | - | - | - | - |
| 1788281836 | 20.56° C | 64% | 1004.6 hPa | - | - | - | - |
| 1788280028 | 21.11° C | 64% | 1004.6 hPa | - | - | - | - |
| 1788279127 | 20.56° C | 65% | 1004.6 hPa | - | - | - | - |
| 1788278226 | 20.56° C | 65% | 1004.5 hPa | - | - | - | - |
* Rain since midnight (hover to see other rain measurements)
** Current wind speed in m/s (hover to see current wind gust speed)